Time;durP1;ratioP1;P1;durP2;ratioP2;P2;SDS_P1;SDS_P2;PMS_P1;PMS_P2;Temp;Humidity;BMP_temperature;BMP_pressure;BME280_temperature;BME280_humidity;BME280_pressure;Samples;Min_cycle;Max_cycle;Signal;HPM_P1;HPM_P2
2023/03/25 00:01:59;;;;;;;33.30;15.57;;;;;;;;;;4811841;29;20058;-82
2023/03/25 00:04:49;;;;;;;35.15;15.52;;;;;;;;;;4791443;29;20489;-81
2023/03/25 00:07:35;;;;;;;37.42;17.10;;;;;;;;;;4812293;29;20424;-81
2023/03/25 00:10:20;;;;;;;31.65;16.63;;;;;;;;;;4812549;29;20046;-81
2023/03/25 00:13:12;;;;;;;29.23;14.35;;;;;;;;;;4810972;29;20050;-79
2023/03/25 00:15:58;;;;;;;23.75;11.98;;;;;;;;;;4827850;29;20046;-81
2023/03/25 00:18:43;;;;;;;18.13;9.95;;;;;;;;;;4812398;29;20050;-80
2023/03/25 00:21:28;;;;;;;37.40;17.13;;;;;;;;;;4811900;29;20050;-79
2023/03/25 00:24:16;;;;;;;47.88;21.80;;;;;;;;;;4829208;29;20043;-79
2023/03/25 00:27:02;;;;;;;44.08;20.25;;;;;;;;;;4812233;29;20047;-81
2023/03/25 00:29:47;;;;;;;31.13;14.90;;;;;;;;;;4821222;29;20045;-80
2023/03/25 00:32:32;;;;;;;23.77;12.00;;;;;;;;;;4804199;29;20055;-79
2023/03/25 00:35:22;;;;;;;30.25;14.63;;;;;;;;;;4815353;29;20393;-79
2023/03/25 00:38:08;;;;;;;34.75;15.85;;;;;;;;;;4815658;29;20042;-81
2023/03/25 00:40:53;;;;;;;29.90;13.95;;;;;;;;;;4808036;29;20050;-79
2023/03/25 00:43:39;;;;;;;31.15;14.38;;;;;;;;;;4801781;29;20058;-79
2023/03/25 00:46:28;;;;;;;27.73;12.98;;;;;;;;;;4815534;29;20488;-79
2023/03/25 00:49:13;;;;;;;24.45;12.00;;;;;;;;;;4831982;29;20050;-79
2023/03/25 00:51:59;;;;;;;19.88;10.93;;;;;;;;;;4832704;29;20054;-82
2023/03/25 00:54:45;;;;;;;26.65;13.25;;;;;;;;;;4807714;29;20050;-79
2023/03/25 00:57:30;;;;;;;39.40;19.38;;;;;;;;;;4824691;29;20057;-78
2023/03/25 01:00:17;;;;;;;46.20;20.77;;;;;;;;;;4815027;29;20058;-81
2023/03/25 01:03:02;;;;;;;38.25;19.05;;;;;;;;;;4831502;29;20057;-81
2023/03/25 01:05:48;;;;;;;36.78;18.17;;;;;;;;;;4824508;29;20404;-80
2023/03/25 01:08:34;;;;;;;38.05;19.67;;;;;;;;;;4807546;29;20047;-80
2023/03/25 01:11:24;;;;;;;32.30;15.88;;;;;;;;;;4814877;29;20050;-79
2023/03/25 01:14:23;;;;;;;21.98;11.65;;;;;;;;;;4815336;29;20437;-79
2023/03/25 01:17:08;;;;;;;23.17;12.32;;;;;;;;;;4807478;29;20053;-79
2023/03/25 01:19:54;;;;;;;20.20;10.82;;;;;;;;;;4814500;29;20046;-80
2023/03/25 01:22:39;;;;;;;21.67;10.80;;;;;;;;;;4832031;29;20403;-80
2023/03/25 01:25:25;;;;;;;23.52;10.68;;;;;;;;;;4807131;29;20062;-79
2023/03/25 01:28:10;;;;;;;26.30;11.40;;;;;;;;;;4807424;29;20042;-81
2023/03/25 01:31:07;;;;;;;25.70;12.43;;;;;;;;;;4814109;29;20489;-81
2023/03/25 01:33:53;;;;;;;23.85;12.90;;;;;;;;;;4814877;29;20504;-79
2023/03/25 01:36:45;;;;;;;26.80;12.27;;;;;;;;;;4814802;29;20059;-79
2023/03/25 01:39:29;;;;;;;21.90;11.00;;;;;;;;;;4794106;29;20054;-82
2023/03/25 01:42:15;;;;;;;23.08;10.88;;;;;;;;;;4831419;29;20054;-80
2023/03/25 01:45:19;;;;;;;19.15;9.50;;;;;;;;;;4814042;29;20488;-81
2023/03/25 01:48:09;;;;;;;20.95;10.23;;;;;;;;;;4832006;29;20046;-82
2023/03/25 01:51:01;;;;;;;24.45;11.10;;;;;;;;;;4831363;29;20058;-80
2023/03/25 01:53:47;;;;;;;31.10;12.45;;;;;;;;;;4806127;29;20501;-81
2023/03/25 01:56:36;;;;;;;37.53;15.95;;;;;;;;;;4830642;29;20050;-81
2023/03/25 01:59:27;;;;;;;36.88;17.35;;;;;;;;;;4823573;29;20050;-81
2023/03/25 02:02:17;;;;;;;34.70;15.65;;;;;;;;;;4823633;29;20046;-81
2023/03/25 02:05:09;;;;;;;29.05;14.68;;;;;;;;;;4831668;29;20054;-80
2023/03/25 02:07:56;;;;;;;28.10;13.05;;;;;;;;;;4817608;29;20042;-80
2023/03/25 02:10:46;;;;;;;25.00;12.15;;;;;;;;;;4831112;29;20054;-80
2023/03/25 02:13:34;;;;;;;20.10;10.60;;;;;;;;;;4816826;29;20436;-81
2023/03/25 02:16:36;;;;;;;19.75;9.68;;;;;;;;;;4806139;29;20046;-81
2023/03/25 02:19:51;;;;;;;19.08;9.35;;;;;;;;;;4830955;29;20058;-79
2023/03/25 02:22:48;;;;;;;13.30;7.18;;;;;;;;;;4818011;29;20403;-81
2023/03/25 02:25:56;;;;;;;11.75;6.15;;;;;;;;;;4830588;29;20428;-81
2023/03/25 02:28:46;;;;;;;10.32;5.65;;;;;;;;;;4813200;29;20039;-80
2023/03/25 02:31:35;;;;;;;12.93;6.45;;;;;;;;;;4806448;29;20062;-80
2023/03/25 02:34:58;;;;;;;12.32;5.78;;;;;;;;;;4822926;29;20050;-80
2023/03/25 02:38:05;;;;;;;10.48;4.82;;;;;;;;;;4806109;29;20049;-80
2023/03/25 02:41:13;;;;;;;10.52;5.25;;;;;;;;;;4817068;29;20047;-82
2023/03/25 02:44:11;;;;;;;9.77;4.93;;;;;;;;;;4821463;29;20420;-80
2023/03/25 02:47:03;;;;;;;9.65;4.90;;;;;;;;;;4802330;29;20054;-82
2023/03/25 02:49:59;;;;;;;8.75;4.65;;;;;;;;;;4805152;29;20055;-81
2023/03/25 02:52:56;;;;;;;10.20;4.82;;;;;;;;;;4806035;29;20043;-80
2023/03/25 02:55:44;;;;;;;8.48;4.88;;;;;;;;;;4810256;29;20047;-81
2023/03/25 02:58:30;;;;;;;9.80;5.20;;;;;;;;;;4811317;29;20409;-81
2023/03/25 03:01:15;;;;;;;10.23;5.80;;;;;;;;;;4805144;29;20496;-81
2023/03/25 03:04:01;;;;;;;15.48;7.38;;;;;;;;;;4813379;29;20432;-81
2023/03/25 03:06:46;;;;;;;20.35;7.80;;;;;;;;;;4805859;29;20058;-81
2023/03/25 03:09:45;;;;;;;19.55;8.10;;;;;;;;;;4812831;29;20050;-81
2023/03/25 03:12:48;;;;;;;15.18;9.15;;;;;;;;;;4813240;29;20501;-81
2023/03/25 03:16:14;;;;;;;18.02;9.45;;;;;;;;;;4798885;29;20050;-81
2023/03/25 03:19:10;;;;;;;22.88;9.75;;;;;;;;;;4811816;29;20042;-79
2023/03/25 03:22:00;;;;;;;16.25;9.27;;;;;;;;;;4813056;29;20400;-81
2023/03/25 03:24:48;;;;;;;18.92;8.82;;;;;;;;;;4798820;29;20055;-81
2023/03/25 03:27:42;;;;;;;14.98;8.18;;;;;;;;;;4813052;29;20042;-80
2023/03/25 03:30:37;;;;;;;14.13;7.90;;;;;;;;;;4798406;29;20482;-81
2023/03/25 03:33:25;;;;;;;;;;;;;;;;;;4818358;29;20481;-80
2023/03/25 03:36:19;;;;;;;11.75;6.75;;;;;;;;;;4812278;29;19921;-82
2023/03/25 03:39:09;;;;;;;19.02;7.45;;;;;;;;;;4817518;29;20047;-81
2023/03/25 03:42:02;;;;;;;12.10;7.25;;;;;;;;;;4813079;29;20062;-81
2023/03/25 03:44:51;;;;;;;14.50;7.45;;;;;;;;;;4817382;29;20066;-81
2023/03/25 03:47:41;;;;;;;20.50;10.93;;;;;;;;;;4822256;29;20054;-81
2023/03/25 03:50:31;;;;;;;23.95;10.75;;;;;;;;;;4812577;29;20051;-80
2023/03/25 03:53:25;;;;;;;23.38;12.05;;;;;;;;;;4823727;29;20054;-81
2023/03/25 03:56:18;;;;;;;25.33;12.15;;;;;;;;;;4812412;29;20043;-81
2023/03/25 03:59:12;;;;;;;33.38;15.77;;;;;;;;;;4828788;29;20050;-81
2023/03/25 04:02:02;;;;;;;36.13;18.60;;;;;;;;;;4812385;29;20039;-81
2023/03/25 04:04:47;;;;;;;37.50;17.70;;;;;;;;;;4828483;29;20054;-81
2023/03/25 04:07:59;;;;;;;40.00;18.60;;;;;;;;;;4830300;29;20046;-81
2023/03/25 04:11:07;;;;;;;36.85;18.40;;;;;;;;;;4833121;29;20042;-80
2023/03/25 04:13:56;;;;;;;35.70;16.95;;;;;;;;;;4833074;29;20057;-80
2023/03/25 04:16:44;;;;;;;36.72;16.98;;;;;;;;;;4833061;29;20038;-80
2023/03/25 04:19:32;;;;;;;37.17;16.35;;;;;;;;;;4815781;29;20042;-80
2023/03/25 04:22:17;;;;;;;28.42;14.00;;;;;;;;;;4816045;29;20395;-80
2023/03/25 04:25:06;;;;;;;36.88;15.48;;;;;;;;;;4833202;29;20050;-81
2023/03/25 04:27:57;;;;;;;35.35;15.18;;;;;;;;;;4832625;29;20058;-81
2023/03/25 04:30:45;;;;;;;35.10;15.68;;;;;;;;;;4825286;29;20042;-80
2023/03/25 04:33:30;;;;;;;38.20;16.90;;;;;;;;;;4832208;29;20046;-81
2023/03/25 04:36:16;;;;;;;39.83;16.15;;;;;;;;;;4815599;29;20043;-81
2023/03/25 04:39:03;;;;;;;34.90;14.10;;;;;;;;;;4807534;29;20055;-80
2023/03/25 04:41:52;;;;;;;30.45;13.90;;;;;;;;;;4832709;29;20042;-81
2023/03/25 04:44:37;;;;;;;29.90;13.30;;;;;;;;;;4815736;29;20058;-82
2023/03/25 04:47:24;;;;;;;37.15;18.67;;;;;;;;;;4831649;29;20050;-82
2023/03/25 04:50:15;;;;;;;41.22;18.48;;;;;;;;;;4824997;29;20046;-82
2023/03/25 04:53:00;;;;;;;44.70;21.52;;;;;;;;;;4832288;29;20050;-82
2023/03/25 04:55:48;;;;;;;62.47;22.83;;;;;;;;;;4832362;29;20042;-82
2023/03/25 04:58:35;;;;;;;52.55;20.63;;;;;;;;;;4815344;29;20046;-81
2023/03/25 05:01:31;;;;;;;38.75;17.42;;;;;;;;;;4831900;29;20053;-82
2023/03/25 05:04:17;;;;;;;34.70;16.15;;;;;;;;;;4815932;29;20058;-82
2023/03/25 05:07:02;;;;;;;32.40;15.32;;;;;;;;;;4815355;29;20059;-82
2023/03/25 05:09:48;;;;;;;36.70;16.02;;;;;;;;;;4815191;29;20047;-82
2023/03/25 05:12:33;;;;;;;34.58;15.57;;;;;;;;;;4807172;29;20055;-82
2023/03/25 05:15:18;;;;;;;32.78;14.73;;;;;;;;;;4800589;29;20042;-83
2023/03/25 05:18:08;;;;;;;34.15;14.88;;;;;;;;;;4831867;29;20046;-81
2023/03/25 05:20:54;;;;;;;31.85;15.20;;;;;;;;;;4813738;29;20062;-81
2023/03/25 05:23:40;;;;;;;33.22;16.33;;;;;;;;;;4831837;29;20054;-81
2023/03/25 05:26:28;;;;;;;39.20;18.33;;;;;;;;;;4814965;29;20062;-81
2023/03/25 05:29:14;;;;;;;41.92;17.77;;;;;;;;;;4831722;29;20042;-82
2023/03/25 05:32:00;;;;;;;35.95;16.38;;;;;;;;;;4831813;29;20046;-81
2023/03/25 05:34:45;;;;;;;51.65;26.50;;;;;;;;;;4831695;29;20037;-81
2023/03/25 05:37:31;;;;;;;35.13;17.63;;;;;;;;;;4831633;29;20419;-82
2023/03/25 05:40:17;;;;;;;33.58;16.30;;;;;;;;;;4832188;29;20054;-81
2023/03/25 05:43:02;;;;;;;29.85;15.40;;;;;;;;;;4831085;29;20062;-81
2023/03/25 05:45:48;;;;;;;28.08;14.55;;;;;;;;;;4830934;29;20059;-80
2023/03/25 05:48:34;;;;;;;27.60;13.93;;;;;;;;;;4832486;29;20034;-81
2023/03/25 05:51:21;;;;;;;32.83;14.77;;;;;;;;;;4829253;29;20062;-81
2023/03/25 05:54:09;;;;;;;64.70;23.70;;;;;;;;;;4835437;29;20038;-80
2023/03/25 05:56:55;;;;;;;48.42;20.63;;;;;;;;;;4838014;29;20038;-82
2023/03/25 05:59:41;;;;;;;52.92;20.35;;;;;;;;;;4835933;29;20049;-80
2023/03/25 06:02:26;;;;;;;62.95;30.27;;;;;;;;;;4826106;29;20492;-82
2023/03/25 06:05:15;;;;;;;90.82;36.60;;;;;;;;;;4835806;29;20050;-80
2023/03/25 06:08:00;;;;;;;76.53;37.80;;;;;;;;;;4836532;29;20045;-80
2023/03/25 06:10:47;;;;;;;89.22;39.47;;;;;;;;;;4836000;29;20054;-80
2023/03/25 06:13:32;;;;;;;83.40;40.65;;;;;;;;;;4833458;29;20041;-81
2023/03/25 06:16:20;;;;;;;89.47;41.55;;;;;;;;;;4831728;29;20049;-80
2023/03/25 06:19:08;;;;;;;73.50;37.72;;;;;;;;;;4811137;29;20054;-80
2023/03/25 06:21:54;;;;;;;81.35;37.40;;;;;;;;;;4811011;29;20054;-80
2023/03/25 06:24:41;;;;;;;83.07;38.35;;;;;;;;;;4831575;29;20041;-80
2023/03/25 06:27:26;;;;;;;103.13;43.03;;;;;;;;;;4832367;29;20050;-80
2023/03/25 06:30:14;;;;;;;77.43;34.10;;;;;;;;;;4831200;29;20050;-80
2023/03/25 06:33:04;;;;;;;76.95;37.55;;;;;;;;;;4829323;29;20492;-80
2023/03/25 06:35:52;;;;;;;85.80;42.47;;;;;;;;;;4817791;29;20049;-80
2023/03/25 06:38:39;;;;;;;57.53;29.85;;;;;;;;;;4822984;29;20050;-80
2023/03/25 06:41:28;;;;;;;50.88;27.17;;;;;;;;;;4823569;29;20046;-80
2023/03/25 06:44:40;;;;;;;44.42;25.55;;;;;;;;;;4818326;29;20053;-80
2023/03/25 06:47:53;;;;;;;44.88;24.33;;;;;;;;;;4800847;29;20054;-80
2023/03/25 06:50:40;;;;;;;44.25;25.42;;;;;;;;;;4812966;29;20042;-81
2023/03/25 06:53:26;;;;;;;31.55;18.80;;;;;;;;;;4813372;29;20046;-81
2023/03/25 06:56:11;;;;;;;35.85;17.95;;;;;;;;;;4812705;29;20042;-80
2023/03/25 06:58:56;;;;;;;40.10;18.10;;;;;;;;;;4806706;29;20485;-80
2023/03/25 07:01:41;;;;;;;36.75;16.83;;;;;;;;;;4804792;29;20046;-81
2023/03/25 07:04:27;;;;;;;32.45;16.67;;;;;;;;;;4812700;29;20046;-80
2023/03/25 07:07:12;;;;;;;32.70;17.35;;;;;;;;;;4813415;29;20047;-81
2023/03/25 07:09:58;;;;;;;26.90;13.82;;;;;;;;;;4806531;29;20058;-80
2023/03/25 07:12:43;;;;;;;29.00;14.25;;;;;;;;;;4806463;29;20062;-82
2023/03/25 07:15:28;;;;;;;34.83;17.67;;;;;;;;;;4814136;29;20432;-81
2023/03/25 07:18:14;;;;;;;30.95;15.93;;;;;;;;;;4815470;29;20038;-81
2023/03/25 07:21:00;;;;;;;72.05;34.15;;;;;;;;;;4814334;29;20046;-81
2023/03/25 07:23:45;;;;;;;37.75;20.33;;;;;;;;;;4815958;29;20046;-81
2023/03/25 07:26:31;;;;;;;40.53;20.88;;;;;;;;;;4805104;29;20066;-81
2023/03/25 07:29:16;;;;;;;36.28;19.42;;;;;;;;;;4813088;29;20505;-81
2023/03/25 07:32:00;;;;;;;;;;;;;;;;;;4812969;29;20401;-81
2023/03/25 07:34:45;;;;;;;27.60;13.48;;;;;;;;;;4812409;29;19921;-81
2023/03/25 07:37:31;;;;;;;34.53;14.95;;;;;;;;;;4811889;29;20038;-81
2023/03/25 07:40:16;;;;;;;29.75;15.48;;;;;;;;;;4812676;29;20050;-81
2023/03/25 07:43:02;;;;;;;19.80;12.73;;;;;;;;;;4811784;29;20405;-81
2023/03/25 07:46:13;;;;;;;18.00;10.82;;;;;;;;;;4815190;29;20046;-81
2023/03/25 07:48:58;;;;;;;40.17;16.23;;;;;;;;;;4821619;29;20057;-81
2023/03/25 07:51:44;;;;;;;27.42;15.70;;;;;;;;;;4812437;29;20488;-81
2023/03/25 07:54:29;;;;;;;22.52;14.40;;;;;;;;;;4822133;29;20051;-81
2023/03/25 07:57:14;;;;;;;24.83;13.48;;;;;;;;;;4821782;29;20053;-82
2023/03/25 08:00:00;;;;;;;15.25;9.68;;;;;;;;;;4812499;29;20066;-81
2023/03/25 08:02:45;;;;;;;29.42;15.10;;;;;;;;;;4829117;29;20061;-81
2023/03/25 08:05:31;;;;;;;30.42;16.88;;;;;;;;;;4829249;29;20062;-81
2023/03/25 08:08:16;;;;;;;38.03;18.20;;;;;;;;;;4812480;29;20047;-81
2023/03/25 08:11:02;;;;;;;38.80;17.55;;;;;;;;;;4828948;29;20049;-81
2023/03/25 08:13:47;;;;;;;29.88;16.73;;;;;;;;;;4811443;29;20046;-80
2023/03/25 08:16:33;;;;;;;37.55;17.85;;;;;;;;;;4811353;29;20043;-86
2023/03/25 08:19:19;;;;;;;37.50;14.13;;;;;;;;;;4828385;29;20046;-79
2023/03/25 08:22:04;;;;;;;33.65;14.60;;;;;;;;;;4812213;29;20051;-81
2023/03/25 08:24:50;;;;;;;25.02;13.13;;;;;;;;;;4797748;29;20054;-80
2023/03/25 08:27:36;;;;;;;24.70;12.23;;;;;;;;;;4812345;29;20042;-82
2023/03/25 08:30:22;;;;;;;23.50;13.43;;;;;;;;;;4812147;29;20066;-80
2023/03/25 08:33:08;;;;;;;28.52;12.82;;;;;;;;;;4828791;29;20038;-80
2023/03/25 08:35:56;;;;;;;29.40;15.63;;;;;;;;;;4810877;29;20050;-81
2023/03/25 08:38:41;;;;;;;25.30;13.23;;;;;;;;;;4820095;29;20046;-80
2023/03/25 08:41:27;;;;;;;21.98;9.60;;;;;;;;;;4819823;29;20484;-81
2023/03/25 08:44:13;;;;;;;12.40;8.10;;;;;;;;;;4828032;29;20050;-80
2023/03/25 08:46:59;;;;;;;26.27;12.88;;;;;;;;;;4818447;29;20059;-80
2023/03/25 08:49:44;;;;;;;26.92;13.45;;;;;;;;;;4811395;29;20051;-81
2023/03/25 08:52:29;;;;;;;19.88;10.88;;;;;;;;;;4811749;29;20054;-81
2023/03/25 08:55:15;;;;;;;30.05;11.20;;;;;;;;;;4828687;29;20412;-80
2023/03/25 08:58:05;;;;;;;19.33;10.68;;;;;;;;;;4807634;29;20485;-79
2023/03/25 09:00:54;;;;;;;20.17;7.60;;;;;;;;;;4831282;29;20045;-81
2023/03/25 09:03:41;;;;;;;11.85;6.30;;;;;;;;;;4832279;29;20428;-80
2023/03/25 09:06:25;;;;;;;24.98;6.20;;;;;;;;;;4814840;29;20062;-83
2023/03/25 09:09:10;;;;;;;17.23;7.03;;;;;;;;;;4807808;29;20054;-82
2023/03/25 09:11:55;;;;;;;11.23;6.03;;;;;;;;;;4832154;29;20046;-82
2023/03/25 09:14:40;;;;;;;9.50;5.90;;;;;;;;;;4809969;29;20058;-81
2023/03/25 09:17:26;;;;;;;10.55;7.05;;;;;;;;;;4831413;29;20049;-81
2023/03/25 09:20:11;;;;;;;18.10;7.05;;;;;;;;;;4831861;29;20042;-81
2023/03/25 09:22:57;;;;;;;11.07;6.13;;;;;;;;;;4814963;29;20050;-82
2023/03/25 09:25:43;;;;;;;10.10;6.47;;;;;;;;;;4831454;29;20050;-81
2023/03/25 09:28:29;;;;;;;8.15;3.85;;;;;;;;;;4824435;29;20046;-80
2023/03/25 09:31:14;;;;;;;9.13;4.50;;;;;;;;;;4831713;29;20491;-80
2023/03/25 09:34:00;;;;;;;39.72;6.53;;;;;;;;;;4813501;29;20401;-80
2023/03/25 09:36:45;;;;;;;449.23;37.80;;;;;;;;;;4816104;29;20042;-80
2023/03/25 09:39:30;;;;;;;57.65;7.03;;;;;;;;;;4830293;29;20055;-80
2023/03/25 09:42:41;;;;;;;16.50;4.10;;;;;;;;;;4831127;29;20046;-80
2023/03/25 09:45:30;;;;;;;6.63;3.20;;;;;;;;;;4831370;29;20053;-80
2023/03/25 09:48:38;;;;;;;6.32;2.67;;;;;;;;;;4830479;29;20488;-80
2023/03/25 09:51:29;;;;;;;7.32;3.05;;;;;;;;;;4831254;29;20042;-81
2023/03/25 09:54:24;;;;;;;3.17;2.33;;;;;;;;;;4819267;29;20051;-82
2023/03/25 09:57:16;;;;;;;4.18;2.60;;;;;;;;;;4814470;29;20491;-81
2023/03/25 10:00:05;;;;;;;8.70;3.58;;;;;;;;;;4831727;29;20042;-81
2023/03/25 10:03:15;;;;;;;7.97;2.97;;;;;;;;;;4830063;29;20042;-82
2023/03/25 10:06:07;;;;;;;6.38;2.65;;;;;;;;;;4813878;29;20054;-81
2023/03/25 10:09:11;;;;;;;10.07;2.65;;;;;;;;;;4830792;29;20054;-81
2023/03/25 10:12:01;;;;;;;6.00;2.83;;;;;;;;;;4806256;29;20051;-83
2023/03/25 10:15:16;;;;;;;6.07;3.08;;;;;;;;;;4814055;29;20050;-81
2023/03/25 10:18:18;;;;;;;;;;;;;;;;;;4831576;29;20046;-81
2023/03/25 10:21:44;;;;;;;10.05;2.60;;;;;;;;;;4813960;29;19920;-81
2023/03/25 10:24:52;;;;;;;13.27;3.05;;;;;;;;;;4805033;29;20499;-82
2023/03/25 10:27:41;;;;;;;5.38;2.00;;;;;;;;;;4831255;29;20408;-81
2023/03/25 10:30:34;;;;;;;3.42;1.75;;;;;;;;;;4805986;29;20508;-82
2023/03/25 10:33:37;;;;;;;7.40;2.42;;;;;;;;;;4822865;29;20045;-82
2023/03/25 10:36:39;;;;;;;15.45;3.42;;;;;;;;;;4805983;29;20046;-81
2023/03/25 10:39:33;;;;;;;14.05;3.72;;;;;;;;;;4813313;29;20420;-82
2023/03/25 10:42:24;;;;;;;5.97;2.25;;;;;;;;;;4830717;29;20042;-82
2023/03/25 10:45:14;;;;;;;5.03;2.40;;;;;;;;;;4804598;29;20062;-82
2023/03/25 10:48:10;;;;;;;10.18;1.95;;;;;;;;;;4827715;29;20050;-81
2023/03/25 10:51:02;;;;;;;7.78;1.80;;;;;;;;;;4816402;29;20037;-81
2023/03/25 10:53:51;;;;;;;3.92;2.00;;;;;;;;;;4830426;29;20050;-81
2023/03/25 10:56:59;;;;;;;10.15;2.67;;;;;;;;;;4830392;29;20046;-81
2023/03/25 10:59:59;;;;;;;5.82;2.63;;;;;;;;;;4829688;29;20045;-80
2023/03/25 11:02:48;;;;;;;5.00;2.42;;;;;;;;;;4805621;29;20062;-80
2023/03/25 11:05:34;;;;;;;6.32;2.38;;;;;;;;;;4829293;29;20050;-81
2023/03/25 11:08:23;;;;;;;6.72;1.90;;;;;;;;;;4798952;29;20046;-82
2023/03/25 11:11:08;;;;;;;6.78;2.80;;;;;;;;;;4812841;29;20054;-82
2023/03/25 11:13:56;;;;;;;7.15;2.35;;;;;;;;;;4822130;29;20046;-82
2023/03/25 11:16:53;;;;;;;4.90;2.45;;;;;;;;;;4809137;29;20054;-82
2023/03/25 11:19:40;;;;;;;9.25;3.03;;;;;;;;;;4812811;29;20053;-82
2023/03/25 11:22:30;;;;;;;4.47;2.65;;;;;;;;;;4823846;29;20054;-81
2023/03/25 11:25:25;;;;;;;25.10;4.25;;;;;;;;;;4799324;29;20050;-81
2023/03/25 11:28:20;;;;;;;10.90;3.13;;;;;;;;;;4829866;29;20057;-81
2023/03/25 11:31:21;;;;;;;6.43;2.70;;;;;;;;;;4829244;29;20053;-81
2023/03/25 11:34:09;;;;;;;2.03;1.17;;;;;;;;;;4821799;29;20050;-82
2023/03/25 11:37:15;;;;;;;9.82;3.30;;;;;;;;;;4804960;29;20046;-83
2023/03/25 11:40:05;;;;;;;12.15;3.30;;;;;;;;;;4811663;29;20055;-83
2023/03/25 11:42:56;;;;;;;9.30;2.70;;;;;;;;;;4812732;29;20054;-83
2023/03/25 11:45:44;;;;;;;13.90;4.45;;;;;;;;;;4816046;29;20050;-83
2023/03/25 11:48:35;;;;;;;2.80;1.65;;;;;;;;;;4812588;29;20496;-83
2023/03/25 11:51:24;;;;;;;4.85;1.95;;;;;;;;;;4821506;29;20045;-83
2023/03/25 11:54:15;;;;;;;10.48;4.05;;;;;;;;;;4829451;29;20479;-83
2023/03/25 11:57:09;;;;;;;8.02;3.60;;;;;;;;;;4809724;29;20042;-83
2023/03/25 12:00:15;;;;;;;8.30;3.97;;;;;;;;;;4808643;29;20046;-83
2023/03/25 12:03:05;;;;;;;5.63;2.38;;;;;;;;;;4804360;29;20058;-82
2023/03/25 12:06:02;;;;;;;7.63;4.13;;;;;;;;;;4804892;29;20058;-82
2023/03/25 12:08:55;;;;;;;2.95;1.80;;;;;;;;;;4804419;29;20043;-82
2023/03/25 12:12:04;;;;;;;6.28;2.60;;;;;;;;;;4798426;29;20059;-81
2023/03/25 12:15:30;;;;;;;5.55;3.20;;;;;;;;;;4828930;29;20049;-81
2023/03/25 12:18:40;;;;;;;5.15;2.47;;;;;;;;;;4817992;29;20047;-81
2023/03/25 12:21:44;;;;;;;3.67;2.45;;;;;;;;;;4829003;29;20038;-82
2023/03/25 12:24:44;;;;;;;3.05;1.98;;;;;;;;;;4803434;29;20058;-83
2023/03/25 12:27:35;;;;;;;3.30;1.95;;;;;;;;;;4811819;29;20477;-82
2023/03/25 12:30:29;;;;;;;3.83;2.45;;;;;;;;;;4818862;29;20058;-82
2023/03/25 12:33:51;;;;;;;11.27;5.55;;;;;;;;;;4802369;29;20098;-82
2023/03/25 12:36:52;;;;;;;10.80;3.58;;;;;;;;;;4815428;29;20042;-81
2023/03/25 12:39:54;;;;;;;7.38;4.05;;;;;;;;;;4832465;29;20051;-83
2023/03/25 12:43:01;;;;;;;7.55;3.05;;;;;;;;;;4832390;29;20034;-82
2023/03/25 12:45:47;;;;;;;12.80;3.60;;;;;;;;;;4815407;29;20043;-81
2023/03/25 12:49:05;;;;;;;5.93;2.80;;;;;;;;;;4815187;29;20058;-81
2023/03/25 12:52:09;;;;;;;6.93;2.90;;;;;;;;;;4821380;29;20118;-81
2023/03/25 12:54:57;;;;;;;5.38;3.20;;;;;;;;;;4801240;29;20042;-79
2023/03/25 12:58:24;;;;;;;4.75;3.22;;;;;;;;;;4819909;29;20046;-81
2023/03/25 13:01:17;;;;;;;7.93;2.90;;;;;;;;;;4750025;30;20056;-83
2023/03/25 13:04:08;;;;;;;6.95;4.07;;;;;;;;;;4750141;30;20063;-85
2023/03/25 13:07:06;;;;;;;7.40;3.67;;;;;;;;;;4811161;29;20055;-83
2023/03/25 13:10:15;;;;;;;7.10;3.85;;;;;;;;;;4814610;29;20050;-83
2023/03/25 13:13:07;;;;;;;7.15;3.40;;;;;;;;;;4812763;29;20051;-82
2023/03/25 13:16:15;;;;;;;5.95;3.30;;;;;;;;;;4814440;29;20489;-83
2023/03/25 13:19:08;;;;;;;7.25;4.00;;;;;;;;;;4800576;29;20150;-84
2023/03/25 13:22:03;;;;;;;12.65;3.85;;;;;;;;;;4814678;29;20050;-84
2023/03/25 13:24:54;;;;;;;9.43;4.00;;;;;;;;;;4787833;29;20051;-83
2023/03/25 13:27:41;;;;;;;9.82;4.10;;;;;;;;;;4814460;29;20047;-83
2023/03/25 13:30:37;;;;;;;9.48;4.85;;;;;;;;;;4806625;29;20046;-83
2023/03/25 13:33:26;;;;;;;7.28;3.95;;;;;;;;;;4814389;29;20050;-83
2023/03/25 13:36:13;;;;;;;10.05;3.83;;;;;;;;;;4814520;29;20050;-83
2023/03/25 13:39:44;;;;;;;11.50;4.45;;;;;;;;;;4813991;29;20050;-82
2023/03/25 13:42:54;;;;;;;7.82;3.63;;;;;;;;;;4820669;29;20038;-83
2023/03/25 13:45:46;;;;;;;10.32;4.38;;;;;;;;;;4813539;29;20034;-84
2023/03/25 13:48:43;;;;;;;8.20;4.05;;;;;;;;;;4814430;29;20054;-83
2023/03/25 13:51:29;;;;;;;8.73;3.80;;;;;;;;;;4806494;29;20424;-82
2023/03/25 13:54:28;;;;;;;6.35;3.55;;;;;;;;;;4814264;29;20050;-82
2023/03/25 13:57:37;;;;;;;11.13;4.05;;;;;;;;;;4814123;29;20042;-83
2023/03/25 14:00:31;;;;;;;4.85;3.38;;;;;;;;;;4813738;29;20046;-83
2023/03/25 14:03:29;;;;;;;7.97;3.92;;;;;;;;;;4813982;29;20404;-82
2023/03/25 14:06:20;;;;;;;7.82;4.35;;;;;;;;;;4800024;29;20055;-83
2023/03/25 14:09:33;;;;;;;8.65;4.00;;;;;;;;;;4800266;29;20059;-83
2023/03/25 14:12:30;;;;;;;8.90;3.72;;;;;;;;;;4814130;29;20054;-82
2023/03/25 14:15:40;;;;;;;12.05;4.90;;;;;;;;;;4813535;29;20050;-82
2023/03/25 14:18:25;;;;;;;11.20;5.22;;;;;;;;;;4793671;29;20058;-82
2023/03/25 14:21:26;;;;;;;10.90;4.45;;;;;;;;;;4813495;29;20492;-84
2023/03/25 14:24:24;;;;;;;6.70;3.97;;;;;;;;;;4813915;29;20496;-82
2023/03/25 14:27:28;;;;;;;7.97;3.80;;;;;;;;;;4806158;29;20059;-82
2023/03/25 14:30:21;;;;;;;12.98;4.63;;;;;;;;;;4813598;29;20047;-83
2023/03/25 14:33:09;;;;;;;8.35;4.45;;;;;;;;;;4813694;29;20054;-83
2023/03/25 14:35:55;;;;;;;13.15;5.53;;;;;;;;;;4805557;29;20500;-83
2023/03/25 14:38:52;;;;;;;7.03;4.75;;;;;;;;;;4813436;29;20054;-82
2023/03/25 14:41:56;;;;;;;7.38;4.35;;;;;;;;;;4812978;29;20058;-82
2023/03/25 14:44:48;;;;;;;8.23;4.63;;;;;;;;;;4813392;29;20050;-82
2023/03/25 14:47:34;;;;;;;8.43;4.30;;;;;;;;;;4824932;29;20050;-82
2023/03/25 14:50:19;;;;;;;10.75;4.55;;;;;;;;;;4799569;29;20051;-83
2023/03/25 14:53:11;;;;;;;7.25;4.30;;;;;;;;;;4812072;29;20508;-81
2023/03/25 14:56:01;;;;;;;10.57;4.60;;;;;;;;;;4813055;29;20058;-82
2023/03/25 14:58:50;;;;;;;5.32;3.55;;;;;;;;;;4813389;29;20058;-82
2023/03/25 15:01:39;;;;;;;9.25;4.03;;;;;;;;;;4813193;29;20042;-82
2023/03/25 15:04:36;;;;;;;7.65;3.90;;;;;;;;;;4799150;29;20400;-82
2023/03/25 15:07:37;;;;;;;9.45;4.53;;;;;;;;;;4810248;29;20050;-81
2023/03/25 15:10:30;;;;;;;12.38;4.32;;;;;;;;;;4822713;29;20492;-82
2023/03/25 15:13:28;;;;;;;5.78;3.75;;;;;;;;;;4812937;29;20050;-82
2023/03/25 15:16:17;;;;;;;7.30;3.80;;;;;;;;;;4829745;29;20038;-81
2023/03/25 15:19:10;;;;;;;7.28;4.15;;;;;;;;;;4830185;29;20046;-80
2023/03/25 15:22:05;;;;;;;18.48;4.20;;;;;;;;;;4812594;29;20059;-82
2023/03/25 15:24:57;;;;;;;8.48;4.50;;;;;;;;;;4805244;29;20042;-82
2023/03/25 15:28:07;;;;;;;13.48;4.75;;;;;;;;;;4829747;29;20041;-81
2023/03/25 15:30:56;;;;;;;6.82;4.20;;;;;;;;;;4812343;29;20043;-82
2023/03/25 15:33:53;;;;;;;10.02;5.07;;;;;;;;;;4813040;29;20492;-82
2023/03/25 15:37:03;;;;;;;8.82;4.82;;;;;;;;;;4812943;29;20046;-82
2023/03/25 15:40:19;;;;;;;8.52;5.07;;;;;;;;;;4816448;29;20050;-82
2023/03/25 15:43:33;;;;;;;6.53;4.50;;;;;;;;;;4822563;29;20834;-82
2023/03/25 15:46:37;;;;;;;8.38;3.97;;;;;;;;;;4828642;29;20053;-83
2023/03/25 15:49:50;;;;;;;16.95;7.32;;;;;;;;;;4830151;29;20050;-82
2023/03/25 15:52:52;;;;;;;23.38;12.70;;;;;;;;;;4829276;29;20042;-82
2023/03/25 15:55:42;;;;;;;15.07;5.03;;;;;;;;;;4829885;29;20054;-82
2023/03/25 15:58:37;;;;;;;23.88;12.68;;;;;;;;;;4829121;29;20054;-82
2023/03/25 16:01:27;;;;;;;12.95;7.90;;;;;;;;;;4829208;29;20053;-83
2023/03/25 16:04:31;;;;;;;38.42;17.40;;;;;;;;;;4829420;29;20431;-82
2023/03/25 16:07:20;;;;;;;36.05;21.50;;;;;;;;;;4829428;29;20483;-82
2023/03/25 16:10:25;;;;;;;62.38;32.75;;;;;;;;;;4829010;29;20050;-82
2023/03/25 16:13:22;;;;;;;37.75;20.75;;;;;;;;;;4827807;29;20084;-83
2023/03/25 16:16:20;;;;;;;58.60;31.30;;;;;;;;;;4814841;29;20047;-83
2023/03/25 16:19:13;;;;;;;60.55;33.47;;;;;;;;;;4818958;29;20488;-81
2023/03/25 16:22:01;;;;;;;24.48;12.70;;;;;;;;;;4819692;29;20054;-80
2023/03/25 16:24:50;;;;;;;24.88;11.25;;;;;;;;;;4821041;29;20408;-81
2023/03/25 16:27:40;;;;;;;19.88;9.82;;;;;;;;;;4828549;29;20046;-82
2023/03/25 16:30:29;;;;;;;20.15;6.90;;;;;;;;;;4812542;29;20050;-81
2023/03/25 16:33:20;;;;;;;8.77;5.43;;;;;;;;;;4824976;29;20051;-81
2023/03/25 16:36:14;;;;;;;9.02;4.18;;;;;;;;;;4813750;29;20050;-81
2023/03/25 16:38:58;;;;;;;28.90;10.80;;;;;;;;;;4811380;29;20049;-81
2023/03/25 16:41:49;;;;;;;22.15;7.95;;;;;;;;;;4814126;29;20050;-80
2023/03/25 16:44:39;;;;;;;24.27;10.35;;;;;;;;;;4817350;29;20055;-83
2023/03/25 16:47:26;;;;;;;15.02;7.45;;;;;;;;;;4818544;29;20058;-82
2023/03/25 16:50:17;;;;;;;20.98;11.13;;;;;;;;;;4820923;29;20038;-82
2023/03/25 16:53:04;;;;;;;13.10;6.72;;;;;;;;;;4826324;29;20706;-82
2023/03/25 16:56:03;;;;;;;15.80;8.05;;;;;;;;;;4825761;29;20392;-82